sensor_id;sensor_type;location;lat;lon;timestamp;P1;durP1;ratioP1;P2;durP2;ratioP2
23676;SDS011;31493;49.058;12.190;2023-01-04T00:02:19;225.73;;;25.73;;
23676;SDS011;31493;49.058;12.190;2023-01-04T00:04:46;181.15;;;24.67;;
23676;SDS011;31493;49.058;12.190;2023-01-04T00:07:13;131.85;;;21.45;;
23676;SDS011;31493;49.058;12.190;2023-01-04T00:09:41;212.90;;;24.77;;
23676;SDS011;31493;49.058;12.190;2023-01-04T00:12:08;182.85;;;23.17;;
23676;SDS011;31493;49.058;12.190;2023-01-04T00:14:36;186.25;;;20.05;;
23676;SDS011;31493;49.058;12.190;2023-01-04T00:17:03;371.38;;;28.48;;
23676;SDS011;31493;49.058;12.190;2023-01-04T00:19:30;252.38;;;22.38;;
23676;SDS011;31493;49.058;12.190;2023-01-04T00:21:57;186.45;;;20.92;;
23676;SDS011;31493;49.058;12.190;2023-01-04T00:24:24;248.57;;;23.85;;
23676;SDS011;31493;49.058;12.190;2023-01-04T00:26:53;206.75;;;24.90;;
23676;SDS011;31493;49.058;12.190;2023-01-04T00:29:20;181.25;;;23.48;;
23676;SDS011;31493;49.058;12.190;2023-01-04T00:31:47;222.00;;;24.45;;
23676;SDS011;31493;49.058;12.190;2023-01-04T00:34:14;137.15;;;21.25;;
23676;SDS011;31493;49.058;12.190;2023-01-04T00:36:43;214.88;;;24.02;;
23676;SDS011;31493;49.058;12.190;2023-01-04T00:39:11;256.05;;;26.20;;
23676;SDS011;31493;49.058;12.190;2023-01-04T00:41:40;165.25;;;22.15;;
23676;SDS011;31493;49.058;12.190;2023-01-04T00:44:10;253.40;;;23.38;;
23676;SDS011;31493;49.058;12.190;2023-01-04T00:46:38;226.68;;;23.23;;
23676;SDS011;31493;49.058;12.190;2023-01-04T00:49:06;232.63;;;22.83;;
23676;SDS011;31493;49.058;12.190;2023-01-04T00:51:35;241.20;;;24.23;;
23676;SDS011;31493;49.058;12.190;2023-01-04T00:54:04;216.18;;;26.30;;
23676;SDS011;31493;49.058;12.190;2023-01-04T00:56:33;219.50;;;24.45;;
23676;SDS011;31493;49.058;12.190;2023-01-04T00:59:00;187.75;;;25.23;;
23676;SDS011;31493;49.058;12.190;2023-01-04T01:01:30;197.63;;;25.43;;
23676;SDS011;31493;49.058;12.190;2023-01-04T01:04:00;165.98;;;23.98;;
23676;SDS011;31493;49.058;12.190;2023-01-04T01:06:29;155.63;;;26.25;;
23676;SDS011;31493;49.058;12.190;2023-01-04T01:08:57;175.43;;;25.75;;
23676;SDS011;31493;49.058;12.190;2023-01-04T01:11:25;142.82;;;22.75;;
23676;SDS011;31493;49.058;12.190;2023-01-04T01:13:53;152.32;;;21.27;;
23676;SDS011;31493;49.058;12.190;2023-01-04T01:16:20;181.02;;;26.30;;
23676;SDS011;31493;49.058;12.190;2023-01-04T01:18:50;104.97;;;21.75;;
23676;SDS011;31493;49.058;12.190;2023-01-04T01:21:17;264.83;;;27.83;;
23676;SDS011;31493;49.058;12.190;2023-01-04T01:23:47;214.85;;;27.25;;
23676;SDS011;31493;49.058;12.190;2023-01-04T01:26:15;174.03;;;24.87;;
23676;SDS011;31493;49.058;12.190;2023-01-04T01:28:45;158.70;;;27.83;;
23676;SDS011;31493;49.058;12.190;2023-01-04T01:31:13;156.93;;;25.45;;
23676;SDS011;31493;49.058;12.190;2023-01-04T01:33:42;134.48;;;23.73;;
23676;SDS011;31493;49.058;12.190;2023-01-04T01:36:11;148.75;;;25.08;;
23676;SDS011;31493;49.058;12.190;2023-01-04T01:38:39;147.15;;;23.88;;
23676;SDS011;31493;49.058;12.190;2023-01-04T01:41:07;128.82;;;25.55;;
23676;SDS011;31493;49.058;12.190;2023-01-04T01:43:46;125.75;;;24.17;;
23676;SDS011;31493;49.058;12.190;2023-01-04T01:46:20;178.90;;;25.00;;
23676;SDS011;31493;49.058;12.190;2023-01-04T01:48:51;132.95;;;20.98;;
23676;SDS011;31493;49.058;12.190;2023-01-04T01:51:21;93.40;;;21.27;;
23676;SDS011;31493;49.058;12.190;2023-01-04T01:53:50;91.43;;;19.10;;
23676;SDS011;31493;49.058;12.190;2023-01-04T01:56:23;123.95;;;21.50;;
23676;SDS011;31493;49.058;12.190;2023-01-04T01:58:53;144.13;;;23.60;;
23676;SDS011;31493;49.058;12.190;2023-01-04T02:01:23;284.30;;;22.75;;
23676;SDS011;31493;49.058;12.190;2023-01-04T02:03:51;144.30;;;21.55;;
23676;SDS011;31493;49.058;12.190;2023-01-04T02:06:20;209.70;;;22.65;;
23676;SDS011;31493;49.058;12.190;2023-01-04T02:08:53;242.50;;;22.92;;
23676;SDS011;31493;49.058;12.190;2023-01-04T02:11:21;202.07;;;20.45;;
23676;SDS011;31493;49.058;12.190;2023-01-04T02:13:48;258.38;;;21.10;;
23676;SDS011;31493;49.058;12.190;2023-01-04T02:16:39;181.00;;;18.42;;
23676;SDS011;31493;49.058;12.190;2023-01-04T02:19:31;188.80;;;17.60;;
23676;SDS011;31493;49.058;12.190;2023-01-04T02:22:12;323.15;;;22.80;;
23676;SDS011;31493;49.058;12.190;2023-01-04T02:25:14;220.18;;;21.50;;
23676;SDS011;31493;49.058;12.190;2023-01-04T02:27:55;207.85;;;19.00;;
23676;SDS011;31493;49.058;12.190;2023-01-04T02:30:37;180.13;;;20.92;;
23676;SDS011;31493;49.058;12.190;2023-01-04T02:33:36;363.23;;;21.80;;
23676;SDS011;31493;49.058;12.190;2023-01-04T02:36:13;295.08;;;18.75;;
23676;SDS011;31493;49.058;12.190;2023-01-04T02:38:51;342.45;;;19.63;;
23676;SDS011;31493;49.058;12.190;2023-01-04T02:41:28;424.40;;;21.40;;
23676;SDS011;31493;49.058;12.190;2023-01-04T02:44:01;325.42;;;19.48;;
23676;SDS011;31493;49.058;12.190;2023-01-04T02:46:52;233.65;;;17.25;;
23676;SDS011;31493;49.058;12.190;2023-01-04T02:49:26;379.00;;;19.73;;
23676;SDS011;31493;49.058;12.190;2023-01-04T02:52:11;323.95;;;16.15;;
23676;SDS011;31493;49.058;12.190;2023-01-04T02:54:39;402.23;;;22.17;;
23676;SDS011;31493;49.058;12.190;2023-01-04T02:57:14;447.50;;;19.33;;
23676;SDS011;31493;49.058;12.190;2023-01-04T03:00:05;370.17;;;19.85;;
23676;SDS011;31493;49.058;12.190;2023-01-04T03:02:43;253.18;;;15.25;;
23676;SDS011;31493;49.058;12.190;2023-01-04T03:05:50;474.13;;;19.55;;
23676;SDS011;31493;49.058;12.190;2023-01-04T03:08:46;580.08;;;25.15;;
23676;SDS011;31493;49.058;12.190;2023-01-04T03:11:20;409.58;;;19.15;;
23676;SDS011;31493;49.058;12.190;2023-01-04T03:14:06;532.60;;;19.80;;
23676;SDS011;31493;49.058;12.190;2023-01-04T03:16:37;465.95;;;21.08;;
23676;SDS011;31493;49.058;12.190;2023-01-04T03:19:07;491.67;;;18.27;;
23676;SDS011;31493;49.058;12.190;2023-01-04T03:21:42;464.33;;;18.50;;
23676;SDS011;31493;49.058;12.190;2023-01-04T03:24:11;525.00;;;21.13;;
23676;SDS011;31493;49.058;12.190;2023-01-04T03:26:58;324.67;;;19.35;;
23676;SDS011;31493;49.058;12.190;2023-01-04T03:29:49;283.75;;;17.58;;
23676;SDS011;31493;49.058;12.190;2023-01-04T03:32:39;260.88;;;18.85;;
23676;SDS011;31493;49.058;12.190;2023-01-04T03:35:31;129.82;;;13.18;;
23676;SDS011;31493;49.058;12.190;2023-01-04T03:38:09;143.55;;;12.55;;
23676;SDS011;31493;49.058;12.190;2023-01-04T03:41:02;158.18;;;16.00;;
23676;SDS011;31493;49.058;12.190;2023-01-04T03:43:51;105.22;;;12.55;;
23676;SDS011;31493;49.058;12.190;2023-01-04T03:46:41;140.02;;;14.27;;
23676;SDS011;31493;49.058;12.190;2023-01-04T03:49:32;109.22;;;12.70;;
23676;SDS011;31493;49.058;12.190;2023-01-04T03:52:06;125.05;;;14.27;;
23676;SDS011;31493;49.058;12.190;2023-01-04T03:54:38;123.95;;;12.63;;
23676;SDS011;31493;49.058;12.190;2023-01-04T03:57:08;113.78;;;12.25;;
23676;SDS011;31493;49.058;12.190;2023-01-04T03:59:45;75.45;;;12.02;;
23676;SDS011;31493;49.058;12.190;2023-01-04T04:02:20;85.05;;;12.55;;
23676;SDS011;31493;49.058;12.190;2023-01-04T04:04:49;111.93;;;13.20;;
23676;SDS011;31493;49.058;12.190;2023-01-04T04:07:33;138.27;;;13.90;;
23676;SDS011;31493;49.058;12.190;2023-01-04T04:10:19;289.05;;;17.17;;
23676;SDS011;31493;49.058;12.190;2023-01-04T04:12:46;223.52;;;13.70;;
23676;SDS011;31493;49.058;12.190;2023-01-04T04:15:13;308.95;;;16.17;;
23676;SDS011;31493;49.058;12.190;2023-01-04T04:17:41;176.13;;;12.68;;
23676;SDS011;31493;49.058;12.190;2023-01-04T04:20:09;360.15;;;17.15;;
23676;SDS011;31493;49.058;12.190;2023-01-04T04:22:37;328.02;;;16.95;;
23676;SDS011;31493;49.058;12.190;2023-01-04T04:25:05;201.13;;;14.23;;
23676;SDS011;31493;49.058;12.190;2023-01-04T04:27:34;141.10;;;15.63;;
23676;SDS011;31493;49.058;12.190;2023-01-04T04:30:01;253.55;;;14.75;;
23676;SDS011;31493;49.058;12.190;2023-01-04T04:32:28;343.65;;;15.27;;
23676;SDS011;31493;49.058;12.190;2023-01-04T04:34:55;250.63;;;10.70;;
23676;SDS011;31493;49.058;12.190;2023-01-04T04:37:22;245.13;;;13.40;;
23676;SDS011;31493;49.058;12.190;2023-01-04T04:39:51;225.40;;;11.55;;
23676;SDS011;31493;49.058;12.190;2023-01-04T04:42:18;204.68;;;10.85;;
23676;SDS011;31493;49.058;12.190;2023-01-04T04:44:45;240.88;;;10.95;;
23676;SDS011;31493;49.058;12.190;2023-01-04T04:47:12;233.50;;;14.02;;
23676;SDS011;31493;49.058;12.190;2023-01-04T04:49:39;112.50;;;9.40;;
23676;SDS011;31493;49.058;12.190;2023-01-04T04:52:06;174.95;;;12.77;;
23676;SDS011;31493;49.058;12.190;2023-01-04T04:54:34;203.63;;;10.73;;
23676;SDS011;31493;49.058;12.190;2023-01-04T04:57:01;223.13;;;11.07;;
23676;SDS011;31493;49.058;12.190;2023-01-04T04:59:28;210.02;;;12.43;;
23676;SDS011;31493;49.058;12.190;2023-01-04T05:01:56;133.85;;;8.25;;
23676;SDS011;31493;49.058;12.190;2023-01-04T05:04:23;136.07;;;8.55;;
23676;SDS011;31493;49.058;12.190;2023-01-04T05:06:50;215.68;;;13.98;;
23676;SDS011;31493;49.058;12.190;2023-01-04T05:09:18;174.93;;;9.88;;
23676;SDS011;31493;49.058;12.190;2023-01-04T05:11:45;216.95;;;13.57;;
23676;SDS011;31493;49.058;12.190;2023-01-04T05:14:30;210.98;;;14.05;;
23676;SDS011;31493;49.058;12.190;2023-01-04T05:16:58;286.30;;;13.07;;
23676;SDS011;31493;49.058;12.190;2023-01-04T05:19:25;83.22;;;9.75;;
23676;SDS011;31493;49.058;12.190;2023-01-04T05:21:52;42.70;;;7.28;;
23676;SDS011;31493;49.058;12.190;2023-01-04T05:24:19;53.97;;;9.80;;
23676;SDS011;31493;49.058;12.190;2023-01-04T05:26:46;61.15;;;10.63;;
23676;SDS011;31493;49.058;12.190;2023-01-04T05:29:13;44.70;;;11.02;;
23676;SDS011;31493;49.058;12.190;2023-01-04T05:31:54;87.20;;;9.05;;
23676;SDS011;31493;49.058;12.190;2023-01-04T05:34:22;275.13;;;16.02;;
23676;SDS011;31493;49.058;12.190;2023-01-04T05:36:49;165.75;;;10.57;;
23676;SDS011;31493;49.058;12.190;2023-01-04T05:39:16;77.47;;;10.02;;
23676;SDS011;31493;49.058;12.190;2023-01-04T05:41:43;193.25;;;13.98;;
23676;SDS011;31493;49.058;12.190;2023-01-04T05:44:28;244.25;;;14.40;;
23676;SDS011;31493;49.058;12.190;2023-01-04T05:46:55;320.30;;;16.40;;
23676;SDS011;31493;49.058;12.190;2023-01-04T05:49:23;104.90;;;9.40;;
23676;SDS011;31493;49.058;12.190;2023-01-04T05:51:50;113.53;;;10.75;;
23676;SDS011;31493;49.058;12.190;2023-01-04T05:54:17;160.60;;;14.43;;
23676;SDS011;31493;49.058;12.190;2023-01-04T05:56:45;84.28;;;11.93;;
23676;SDS011;31493;49.058;12.190;2023-01-04T05:59:12;120.38;;;12.73;;
23676;SDS011;31493;49.058;12.190;2023-01-04T06:01:39;106.43;;;9.52;;
23676;SDS011;31493;49.058;12.190;2023-01-04T06:04:06;102.18;;;14.00;;
23676;SDS011;31493;49.058;12.190;2023-01-04T06:06:34;173.90;;;13.13;;
23676;SDS011;31493;49.058;12.190;2023-01-04T06:09:02;85.38;;;9.70;;
23676;SDS011;31493;49.058;12.190;2023-01-04T06:11:29;190.93;;;14.23;;
23676;SDS011;31493;49.058;12.190;2023-01-04T06:13:56;100.20;;;11.50;;
23676;SDS011;31493;49.058;12.190;2023-01-04T06:16:23;112.65;;;10.75;;
23676;SDS011;31493;49.058;12.190;2023-01-04T06:18:50;104.75;;;13.27;;
23676;SDS011;31493;49.058;12.190;2023-01-04T06:21:17;69.70;;;13.82;;
23676;SDS011;31493;49.058;12.190;2023-01-04T06:23:46;48.88;;;6.10;;
23676;SDS011;31493;49.058;12.190;2023-01-04T06:26:13;166.02;;;13.63;;
23676;SDS011;31493;49.058;12.190;2023-01-04T06:28:41;317.43;;;18.47;;
23676;SDS011;31493;49.058;12.190;2023-01-04T06:31:08;236.35;;;11.65;;
23676;SDS011;31493;49.058;12.190;2023-01-04T06:33:36;229.15;;;8.95;;
23676;SDS011;31493;49.058;12.190;2023-01-04T06:36:04;266.23;;;15.80;;
23676;SDS011;31493;49.058;12.190;2023-01-04T06:38:32;188.80;;;14.73;;
23676;SDS011;31493;49.058;12.190;2023-01-04T06:41:01;523.75;;;23.65;;
23676;SDS011;31493;49.058;12.190;2023-01-04T06:43:28;630.20;;;27.67;;
23676;SDS011;31493;49.058;12.190;2023-01-04T06:45:55;339.90;;;19.67;;
23676;SDS011;31493;49.058;12.190;2023-01-04T06:48:22;676.63;;;24.98;;
23676;SDS011;31493;49.058;12.190;2023-01-04T06:50:49;38.20;;;11.20;;
23676;SDS011;31493;49.058;12.190;2023-01-04T06:53:16;178.55;;;19.30;;
23676;SDS011;31493;49.058;12.190;2023-01-04T06:55:43;124.45;;;16.60;;
23676;SDS011;31493;49.058;12.190;2023-01-04T06:58:11;267.35;;;16.70;;
23676;SDS011;31493;49.058;12.190;2023-01-04T07:00:38;233.07;;;15.63;;
23676;SDS011;31493;49.058;12.190;2023-01-04T07:03:05;58.92;;;14.57;;
23676;SDS011;31493;49.058;12.190;2023-01-04T07:05:32;195.93;;;14.68;;
23676;SDS011;31493;49.058;12.190;2023-01-04T07:07:59;194.85;;;16.73;;
23676;SDS011;31493;49.058;12.190;2023-01-04T07:10:27;46.03;;;10.25;;
23676;SDS011;31493;49.058;12.190;2023-01-04T07:12:55;28.70;;;12.70;;
23676;SDS011;31493;49.058;12.190;2023-01-04T07:15:23;41.22;;;14.77;;
23676;SDS011;31493;49.058;12.190;2023-01-04T07:17:50;82.55;;;16.08;;
23676;SDS011;31493;49.058;12.190;2023-01-04T07:20:17;254.63;;;12.68;;
23676;SDS011;31493;49.058;12.190;2023-01-04T07:22:44;565.55;;;25.40;;
23676;SDS011;31493;49.058;12.190;2023-01-04T07:25:11;631.10;;;25.33;;
23676;SDS011;31493;49.058;12.190;2023-01-04T07:27:38;307.85;;;19.50;;
23676;SDS011;31493;49.058;12.190;2023-01-04T07:30:06;417.92;;;19.35;;
23676;SDS011;31493;49.058;12.190;2023-01-04T07:32:35;83.55;;;13.80;;
23676;SDS011;31493;49.058;12.190;2023-01-04T07:35:02;26.27;;;14.60;;
23676;SDS011;31493;49.058;12.190;2023-01-04T07:37:30;157.18;;;16.45;;
23676;SDS011;31493;49.058;12.190;2023-01-04T07:39:57;295.85;;;18.02;;
23676;SDS011;31493;49.058;12.190;2023-01-04T07:42:24;83.40;;;14.23;;
23676;SDS011;31493;49.058;12.190;2023-01-04T07:44:51;145.07;;;13.75;;
23676;SDS011;31493;49.058;12.190;2023-01-04T07:47:18;27.77;;;13.70;;
23676;SDS011;31493;49.058;12.190;2023-01-04T07:49:46;36.95;;;13.30;;
23676;SDS011;31493;49.058;12.190;2023-01-04T07:52:14;26.45;;;13.77;;
23676;SDS011;31493;49.058;12.190;2023-01-04T07:54:41;31.52;;;17.00;;
23676;SDS011;31493;49.058;12.190;2023-01-04T07:57:08;33.15;;;17.85;;
23676;SDS011;31493;49.058;12.190;2023-01-04T07:59:35;48.30;;;14.52;;
23676;SDS011;31493;49.058;12.190;2023-01-04T08:02:02;23.85;;;11.82;;
23676;SDS011;31493;49.058;12.190;2023-01-04T08:04:29;23.13;;;11.80;;
23676;SDS011;31493;49.058;12.190;2023-01-04T08:06:58;29.25;;;15.88;;
23676;SDS011;31493;49.058;12.190;2023-01-04T08:09:25;29.45;;;15.93;;
23676;SDS011;31493;49.058;12.190;2023-01-04T08:11:52;28.58;;;13.60;;
23676;SDS011;31493;49.058;12.190;2023-01-04T08:14:19;31.58;;;16.90;;
23676;SDS011;31493;49.058;12.190;2023-01-04T08:16:46;30.67;;;16.60;;
23676;SDS011;31493;49.058;12.190;2023-01-04T08:19:14;25.48;;;12.88;;
23676;SDS011;31493;49.058;12.190;2023-01-04T08:21:43;21.50;;;11.63;;
23676;SDS011;31493;49.058;12.190;2023-01-04T08:24:13;30.63;;;16.67;;
23676;SDS011;31493;49.058;12.190;2023-01-04T08:26:41;30.10;;;17.67;;
23676;SDS011;31493;49.058;12.190;2023-01-04T08:29:09;27.85;;;13.80;;
23676;SDS011;31493;49.058;12.190;2023-01-04T08:31:36;16.88;;;9.45;;
23676;SDS011;31493;49.058;12.190;2023-01-04T08:34:05;26.88;;;14.40;;
23676;SDS011;31493;49.058;12.190;2023-01-04T08:36:34;26.50;;;15.35;;
23676;SDS011;31493;49.058;12.190;2023-01-04T08:39:09;24.90;;;14.55;;
23676;SDS011;31493;49.058;12.190;2023-01-04T08:41:37;24.42;;;12.45;;
23676;SDS011;31493;49.058;12.190;2023-01-04T08:44:16;24.70;;;14.43;;
23676;SDS011;31493;49.058;12.190;2023-01-04T08:46:43;23.08;;;14.32;;
23676;SDS011;31493;49.058;12.190;2023-01-04T08:49:10;30.27;;;16.90;;
23676;SDS011;31493;49.058;12.190;2023-01-04T08:51:38;27.35;;;14.18;;
23676;SDS011;31493;49.058;12.190;2023-01-04T08:54:05;23.83;;;13.35;;
23676;SDS011;31493;49.058;12.190;2023-01-04T08:56:33;25.02;;;14.68;;
23676;SDS011;31493;49.058;12.190;2023-01-04T08:59:02;25.38;;;14.88;;
23676;SDS011;31493;49.058;12.190;2023-01-04T09:01:30;26.45;;;15.90;;
23676;SDS011;31493;49.058;12.190;2023-01-04T09:03:57;30.17;;;17.08;;
23676;SDS011;31493;49.058;12.190;2023-01-04T09:08:54;28.70;;;14.93;;
23676;SDS011;31493;49.058;12.190;2023-01-04T09:11:22;25.88;;;13.88;;
23676;SDS011;31493;49.058;12.190;2023-01-04T09:13:53;21.97;;;12.90;;
23676;SDS011;31493;49.058;12.190;2023-01-04T09:16:22;24.92;;;14.50;;
23676;SDS011;31493;49.058;12.190;2023-01-04T09:18:49;23.08;;;13.82;;
23676;SDS011;31493;49.058;12.190;2023-01-04T09:21:17;23.55;;;14.18;;
23676;SDS011;31493;49.058;12.190;2023-01-04T09:23:46;23.23;;;14.27;;
23676;SDS011;31493;49.058;12.190;2023-01-04T09:26:14;21.42;;;11.50;;
23676;SDS011;31493;49.058;12.190;2023-01-04T09:31:12;18.63;;;10.30;;
23676;SDS011;31493;49.058;12.190;2023-01-04T09:33:41;25.70;;;14.63;;
23676;SDS011;31493;49.058;12.190;2023-01-04T09:36:10;25.13;;;16.02;;
23676;SDS011;31493;49.058;12.190;2023-01-04T09:38:39;25.02;;;15.10;;
23676;SDS011;31493;49.058;12.190;2023-01-04T09:41:09;30.23;;;17.73;;
23676;SDS011;31493;49.058;12.190;2023-01-04T09:43:44;21.90;;;12.88;;
23676;SDS011;31493;49.058;12.190;2023-01-04T09:46:17;31.00;;;18.65;;
23676;SDS011;31493;49.058;12.190;2023-01-04T09:48:53;27.65;;;15.30;;
23676;SDS011;31493;49.058;12.190;2023-01-04T09:51:30;29.02;;;15.93;;
23676;SDS011;31493;49.058;12.190;2023-01-04T09:54:01;25.65;;;14.70;;
23676;SDS011;31493;49.058;12.190;2023-01-04T09:56:32;20.60;;;12.73;;
23676;SDS011;31493;49.058;12.190;2023-01-04T10:01:29;27.20;;;16.02;;
23676;SDS011;31493;49.058;12.190;2023-01-04T10:04:09;30.40;;;17.13;;
23676;SDS011;31493;49.058;12.190;2023-01-04T10:06:41;27.98;;;15.95;;
23676;SDS011;31493;49.058;12.190;2023-01-04T10:09:09;25.38;;;15.07;;
23676;SDS011;31493;49.058;12.190;2023-01-04T10:11:42;30.50;;;16.90;;
23676;SDS011;31493;49.058;12.190;2023-01-04T10:14:29;29.30;;;17.17;;
23676;SDS011;31493;49.058;12.190;2023-01-04T10:17:22;29.27;;;17.08;;
23676;SDS011;31493;49.058;12.190;2023-01-04T10:20:03;23.05;;;12.68;;
23676;SDS011;31493;49.058;12.190;2023-01-04T10:22:50;30.80;;;17.33;;
23676;SDS011;31493;49.058;12.190;2023-01-04T10:25:25;24.23;;;15.65;;
23676;SDS011;31493;49.058;12.190;2023-01-04T10:28:01;28.52;;;16.25;;
23676;SDS011;31493;49.058;12.190;2023-01-04T10:30:39;30.15;;;16.30;;
23676;SDS011;31493;49.058;12.190;2023-01-04T10:33:15;28.83;;;17.00;;
23676;SDS011;31493;49.058;12.190;2023-01-04T10:35:50;28.92;;;16.15;;
23676;SDS011;31493;49.058;12.190;2023-01-04T10:40:48;26.38;;;16.35;;
23676;SDS011;31493;49.058;12.190;2023-01-04T10:43:22;27.27;;;16.52;;
23676;SDS011;31493;49.058;12.190;2023-01-04T10:45:58;29.35;;;14.85;;
23676;SDS011;31493;49.058;12.190;2023-01-04T10:48:32;24.52;;;15.13;;
23676;SDS011;31493;49.058;12.190;2023-01-04T10:51:08;30.60;;;18.13;;
23676;SDS011;31493;49.058;12.190;2023-01-04T10:53:38;25.95;;;14.48;;
23676;SDS011;31493;49.058;12.190;2023-01-04T10:56:12;27.58;;;16.50;;
23676;SDS011;31493;49.058;12.190;2023-01-04T10:58:45;32.35;;;18.10;;
23676;SDS011;31493;49.058;12.190;2023-01-04T11:01:18;26.38;;;15.85;;
23676;SDS011;31493;49.058;12.190;2023-01-04T11:03:48;26.13;;;15.45;;
23676;SDS011;31493;49.058;12.190;2023-01-04T11:06:20;24.80;;;13.75;;
23676;SDS011;31493;49.058;12.190;2023-01-04T11:08:54;24.75;;;14.82;;
23676;SDS011;31493;49.058;12.190;2023-01-04T11:11:24;30.10;;;16.60;;
23676;SDS011;31493;49.058;12.190;2023-01-04T11:13:55;26.65;;;14.80;;
23676;SDS011;31493;49.058;12.190;2023-01-04T11:16:22;23.30;;;14.07;;
23676;SDS011;31493;49.058;12.190;2023-01-04T11:18:49;27.33;;;16.83;;
23676;SDS011;31493;49.058;12.190;2023-01-04T11:21:17;24.40;;;14.38;;
23676;SDS011;31493;49.058;12.190;2023-01-04T11:23:52;26.42;;;15.93;;
23676;SDS011;31493;49.058;12.190;2023-01-04T11:26:24;26.15;;;15.68;;
23676;SDS011;31493;49.058;12.190;2023-01-04T11:28:56;17.95;;;9.95;;
23676;SDS011;31493;49.058;12.190;2023-01-04T11:31:27;29.40;;;16.40;;
23676;SDS011;31493;49.058;12.190;2023-01-04T11:33:58;23.95;;;14.82;;
23676;SDS011;31493;49.058;12.190;2023-01-04T11:36:35;22.55;;;14.20;;
23676;SDS011;31493;49.058;12.190;2023-01-04T11:39:05;28.30;;;16.05;;
23676;SDS011;31493;49.058;12.190;2023-01-04T11:41:47;28.10;;;15.90;;
23676;SDS011;31493;49.058;12.190;2023-01-04T11:44:20;28.88;;;15.90;;
23676;SDS011;31493;49.058;12.190;2023-01-04T11:47:03;26.10;;;15.17;;
23676;SDS011;31493;49.058;12.190;2023-01-04T11:49:33;24.60;;;15.23;;
23676;SDS011;31493;49.058;12.190;2023-01-04T11:52:03;21.55;;;13.02;;
23676;SDS011;31493;49.058;12.190;2023-01-04T11:54:33;23.92;;;15.00;;
23676;SDS011;31493;49.058;12.190;2023-01-04T11:57:00;28.67;;;15.45;;
23676;SDS011;31493;49.058;12.190;2023-01-04T11:59:31;22.90;;;14.73;;
23676;SDS011;31493;49.058;12.190;2023-01-04T12:02:18;21.65;;;12.25;;
23676;SDS011;31493;49.058;12.190;2023-01-04T12:04:47;19.70;;;12.13;;
23676;SDS011;31493;49.058;12.190;2023-01-04T12:07:21;26.45;;;15.07;;
23676;SDS011;31493;49.058;12.190;2023-01-04T12:09:57;23.65;;;13.90;;
23676;SDS011;31493;49.058;12.190;2023-01-04T12:12:27;18.48;;;11.10;;
23676;SDS011;31493;49.058;12.190;2023-01-04T12:14:55;22.65;;;13.18;;
23676;SDS011;31493;49.058;12.190;2023-01-04T12:17:29;19.15;;;12.88;;
23676;SDS011;31493;49.058;12.190;2023-01-04T12:20:11;21.98;;;12.85;;
23676;SDS011;31493;49.058;12.190;2023-01-04T12:22:42;21.90;;;12.50;;
23676;SDS011;31493;49.058;12.190;2023-01-04T12:25:19;19.75;;;11.15;;
23676;SDS011;31493;49.058;12.190;2023-01-04T12:27:53;19.02;;;11.63;;
23676;SDS011;31493;49.058;12.190;2023-01-04T12:30:34;17.63;;;9.90;;
23676;SDS011;31493;49.058;12.190;2023-01-04T12:36:05;14.90;;;9.13;;
23676;SDS011;31493;49.058;12.190;2023-01-04T12:47:46;14.38;;;8.85;;
23676;SDS011;31493;49.058;12.190;2023-01-04T12:50:33;16.13;;;10.48;;
23676;SDS011;31493;49.058;12.190;2023-01-04T12:53:52;16.02;;;9.20;;
23676;SDS011;31493;49.058;12.190;2023-01-04T12:59:30;14.25;;;8.95;;
23676;SDS011;31493;49.058;12.190;2023-01-04T13:02:13;13.35;;;9.13;;
23676;SDS011;31493;49.058;12.190;2023-01-04T13:04:46;15.05;;;8.48;;
23676;SDS011;31493;49.058;12.190;2023-01-04T13:07:15;12.65;;;8.23;;
23676;SDS011;31493;49.058;12.190;2023-01-04T13:09:51;12.80;;;7.85;;
23676;SDS011;31493;49.058;12.190;2023-01-04T13:12:32;11.65;;;7.80;;
23676;SDS011;31493;49.058;12.190;2023-01-04T13:15:10;9.20;;;6.57;;
23676;SDS011;31493;49.058;12.190;2023-01-04T13:17:45;12.40;;;8.27;;
23676;SDS011;31493;49.058;12.190;2023-01-04T13:20:17;11.10;;;7.30;;
23676;SDS011;31493;49.058;12.190;2023-01-04T13:22:47;12.77;;;7.45;;
23676;SDS011;31493;49.058;12.190;2023-01-04T13:25:19;11.35;;;7.40;;
23676;SDS011;31493;49.058;12.190;2023-01-04T13:27:58;12.13;;;7.28;;
23676;SDS011;31493;49.058;12.190;2023-01-04T13:30:32;10.00;;;7.10;;
23676;SDS011;31493;49.058;12.190;2023-01-04T13:33:07;11.38;;;7.57;;
23676;SDS011;31493;49.058;12.190;2023-01-04T13:35:35;10.45;;;7.40;;
23676;SDS011;31493;49.058;12.190;2023-01-04T13:38:02;10.85;;;6.30;;
23676;SDS011;31493;49.058;12.190;2023-01-04T13:40:43;9.38;;;6.60;;
23676;SDS011;31493;49.058;12.190;2023-01-04T13:43:16;9.95;;;5.85;;
23676;SDS011;31493;49.058;12.190;2023-01-04T13:46:05;7.72;;;5.90;;
23676;SDS011;31493;49.058;12.190;2023-01-04T13:48:40;9.30;;;4.95;;
23676;SDS011;31493;49.058;12.190;2023-01-04T13:51:13;8.48;;;6.00;;
23676;SDS011;31493;49.058;12.190;2023-01-04T13:53:50;8.98;;;5.88;;
23676;SDS011;31493;49.058;12.190;2023-01-04T13:56:20;13.38;;;6.57;;
23676;SDS011;31493;49.058;12.190;2023-01-04T13:58:49;10.93;;;7.07;;
23676;SDS011;31493;49.058;12.190;2023-01-04T14:01:18;9.40;;;6.78;;
23676;SDS011;31493;49.058;12.190;2023-01-04T14:03:49;8.18;;;5.07;;
23676;SDS011;31493;49.058;12.190;2023-01-04T14:06:20;9.13;;;5.45;;
23676;SDS011;31493;49.058;12.190;2023-01-04T14:08:52;10.88;;;6.25;;
23676;SDS011;31493;49.058;12.190;2023-01-04T14:11:28;9.98;;;6.18;;
23676;SDS011;31493;49.058;12.190;2023-01-04T14:14:17;10.57;;;5.72;;
23676;SDS011;31493;49.058;12.190;2023-01-04T14:16:48;8.43;;;5.45;;
23676;SDS011;31493;49.058;12.190;2023-01-04T14:19:25;7.65;;;4.45;;
23676;SDS011;31493;49.058;12.190;2023-01-04T14:28:18;8.82;;;5.97;;
23676;SDS011;31493;49.058;12.190;2023-01-04T14:30:53;7.47;;;4.88;;
23676;SDS011;31493;49.058;12.190;2023-01-04T14:33:24;8.27;;;4.75;;
23676;SDS011;31493;49.058;12.190;2023-01-04T14:36:02;7.45;;;4.97;;
23676;SDS011;31493;49.058;12.190;2023-01-04T14:38:37;9.32;;;6.05;;
23676;SDS011;31493;49.058;12.190;2023-01-04T14:43:43;7.43;;;5.07;;
23676;SDS011;31493;49.058;12.190;2023-01-04T14:46:10;6.97;;;4.45;;
23676;SDS011;31493;49.058;12.190;2023-01-04T14:48:37;9.00;;;4.72;;
23676;SDS011;31493;49.058;12.190;2023-01-04T14:51:05;6.93;;;3.45;;
23676;SDS011;31493;49.058;12.190;2023-01-04T14:53:33;5.45;;;4.05;;
23676;SDS011;31493;49.058;12.190;2023-01-04T14:56:00;5.93;;;4.10;;
23676;SDS011;31493;49.058;12.190;2023-01-04T14:58:27;7.82;;;4.68;;
23676;SDS011;31493;49.058;12.190;2023-01-04T15:00:55;9.75;;;3.90;;
23676;SDS011;31493;49.058;12.190;2023-01-04T15:03:22;6.82;;;4.40;;
23676;SDS011;31493;49.058;12.190;2023-01-04T15:05:49;6.80;;;4.35;;
23676;SDS011;31493;49.058;12.190;2023-01-04T15:08:16;3.47;;;2.67;;